sensor_id;sensor_type;location;lat;lon;timestamp;pressure;altitude;pressure_sealevel;temperature;humidity
77823;BME280;67013;49.730;17.292;2024-03-02T00:02:18;97653.82;;;12.00;69.93
77823;BME280;67013;49.730;17.292;2024-03-02T00:04:48;97653.33;;;11.99;70.08
77823;BME280;67013;49.730;17.292;2024-03-02T00:07:18;97652.91;;;12.00;70.21
77823;BME280;67013;49.730;17.292;2024-03-02T00:09:48;97654.39;;;12.02;70.03
77823;BME280;67013;49.730;17.292;2024-03-02T00:12:17;97653.30;;;12.00;69.92
77823;BME280;67013;49.730;17.292;2024-03-02T00:14:49;97654.40;;;11.99;70.15
77823;BME280;67013;49.730;17.292;2024-03-02T00:17:26;97655.46;;;11.99;70.03
77823;BME280;67013;49.730;17.292;2024-03-02T00:19:56;97659.16;;;11.99;70.09
77823;BME280;67013;49.730;17.292;2024-03-02T00:22:25;97657.05;;;11.99;70.02
77823;BME280;67013;49.730;17.292;2024-03-02T00:24:56;97659.19;;;11.98;70.22
77823;BME280;67013;49.730;17.292;2024-03-02T00:27:26;97653.59;;;11.97;69.93
77823;BME280;67013;49.730;17.292;2024-03-02T00:29:55;97653.06;;;11.95;70.12
77823;BME280;67013;49.730;17.292;2024-03-02T00:32:25;97650.42;;;11.93;70.01
77823;BME280;67013;49.730;17.292;2024-03-02T00:34:56;97647.20;;;11.92;70.06
77823;BME280;67013;49.730;17.292;2024-03-02T00:37:26;97652.64;;;11.92;70.03
77823;BME280;67013;49.730;17.292;2024-03-02T00:39:56;97654.58;;;11.92;70.08
77823;BME280;67013;49.730;17.292;2024-03-02T00:42:26;97656.42;;;11.92;69.93
77823;BME280;67013;49.730;17.292;2024-03-02T00:44:55;97658.73;;;11.94;70.09
77823;BME280;67013;49.730;17.292;2024-03-02T00:47:25;97652.90;;;11.95;69.83
77823;BME280;67013;49.730;17.292;2024-03-02T00:49:54;97652.57;;;11.96;69.84
77823;BME280;67013;49.730;17.292;2024-03-02T00:52:25;97653.10;;;11.96;69.71
77823;BME280;67013;49.730;17.292;2024-03-02T00:54:58;97654.52;;;11.98;69.85
77823;BME280;67013;49.730;17.292;2024-03-02T00:57:31;97653.18;;;11.97;69.65
77823;BME280;67013;49.730;17.292;2024-03-02T01:00:04;97648.50;;;11.97;69.69
77823;BME280;67013;49.730;17.292;2024-03-02T01:02:40;97645.12;;;11.96;69.57
77823;BME280;67013;49.730;17.292;2024-03-02T01:05:10;97644.07;;;11.94;69.54
77823;BME280;67013;49.730;17.292;2024-03-02T01:07:41;97646.38;;;11.94;69.55
77823;BME280;67013;49.730;17.292;2024-03-02T01:10:11;97650.07;;;11.93;69.57
77823;BME280;67013;49.730;17.292;2024-03-02T01:12:40;97647.59;;;11.92;69.60
77823;BME280;67013;49.730;17.292;2024-03-02T01:15:11;97648.44;;;11.92;69.75
77823;BME280;67013;49.730;17.292;2024-03-02T01:17:41;97647.59;;;11.92;69.83
77823;BME280;67013;49.730;17.292;2024-03-02T01:20:12;97647.42;;;11.92;69.63
77823;BME280;67013;49.730;17.292;2024-03-02T01:22:41;97643.17;;;11.90;69.75
77823;BME280;67013;49.730;17.292;2024-03-02T01:25:11;97642.02;;;11.90;69.75
77823;BME280;67013;49.730;17.292;2024-03-02T01:27:41;97635.59;;;11.88;69.63
77823;BME280;67013;49.730;17.292;2024-03-02T01:30:12;97628.23;;;11.86;69.70
77823;BME280;67013;49.730;17.292;2024-03-02T01:32:42;97624.14;;;11.85;69.77
77823;BME280;67013;49.730;17.292;2024-03-02T01:35:11;97628.65;;;11.84;69.87
77823;BME280;67013;49.730;17.292;2024-03-02T01:37:41;97631.23;;;11.82;69.79
77823;BME280;67013;49.730;17.292;2024-03-02T01:40:12;97635.21;;;11.80;69.72
77823;BME280;67013;49.730;17.292;2024-03-02T01:42:41;97631.66;;;11.79;69.86
77823;BME280;67013;49.730;17.292;2024-03-02T01:45:13;97628.55;;;11.79;69.82
77823;BME280;67013;49.730;17.292;2024-03-02T01:47:42;97627.48;;;11.79;69.85
77823;BME280;67013;49.730;17.292;2024-03-02T01:50:13;97624.02;;;11.79;69.77
77823;BME280;67013;49.730;17.292;2024-03-02T01:52:43;97620.74;;;11.79;69.78
77823;BME280;67013;49.730;17.292;2024-03-02T01:55:14;97623.05;;;11.78;69.87
77823;BME280;67013;49.730;17.292;2024-03-02T01:57:44;97620.16;;;11.77;69.76
77823;BME280;67013;49.730;17.292;2024-03-02T02:00:16;97620.60;;;11.78;69.87
77823;BME280;67013;49.730;17.292;2024-03-02T02:02:47;97619.98;;;11.79;69.82
77823;BME280;67013;49.730;17.292;2024-03-02T02:05:17;97620.23;;;11.82;69.68
77823;BME280;67013;49.730;17.292;2024-03-02T02:07:46;97618.90;;;11.84;69.65
77823;BME280;67013;49.730;17.292;2024-03-02T02:10:17;97617.59;;;11.84;69.62
77823;BME280;67013;49.730;17.292;2024-03-02T02:12:47;97616.83;;;11.87;69.61
77823;BME280;67013;49.730;17.292;2024-03-02T02:15:27;97615.89;;;11.89;69.77
77823;BME280;67013;49.730;17.292;2024-03-02T02:17:57;97613.04;;;11.92;69.64
77823;BME280;67013;49.730;17.292;2024-03-02T02:20:27;97612.45;;;11.95;69.50
77823;BME280;67013;49.730;17.292;2024-03-02T02:23:01;97607.90;;;11.97;69.60
77823;BME280;67013;49.730;17.292;2024-03-02T02:25:31;97602.09;;;12.00;69.29
77823;BME280;67013;49.730;17.292;2024-03-02T02:28:00;97602.64;;;11.99;69.33
77823;BME280;67013;49.730;17.292;2024-03-02T02:30:31;97601.91;;;12.00;69.13
77823;BME280;67013;49.730;17.292;2024-03-02T02:33:01;97600.61;;;11.99;69.10
77823;BME280;67013;49.730;17.292;2024-03-02T02:35:31;97600.47;;;11.98;69.28
77823;BME280;67013;49.730;17.292;2024-03-02T02:38:00;97596.61;;;11.97;69.06
77823;BME280;67013;49.730;17.292;2024-03-02T02:40:30;97597.90;;;11.94;69.10
77823;BME280;67013;49.730;17.292;2024-03-02T02:42:59;97596.39;;;11.91;68.97
77823;BME280;67013;49.730;17.292;2024-03-02T02:45:29;97598.59;;;11.88;69.06
77823;BME280;67013;49.730;17.292;2024-03-02T02:47:58;97598.88;;;11.83;69.05
77823;BME280;67013;49.730;17.292;2024-03-02T02:50:30;97600.97;;;11.80;69.07
77823;BME280;67013;49.730;17.292;2024-03-02T02:53:00;97598.33;;;11.78;69.21
77823;BME280;67013;49.730;17.292;2024-03-02T02:55:29;97597.98;;;11.76;69.26
77823;BME280;67013;49.730;17.292;2024-03-02T02:58:00;97599.25;;;11.73;69.34
77823;BME280;67013;49.730;17.292;2024-03-02T03:00:29;97600.48;;;11.69;69.71
77823;BME280;67013;49.730;17.292;2024-03-02T03:02:58;97599.45;;;11.63;69.61
77823;BME280;67013;49.730;17.292;2024-03-02T03:05:28;97602.75;;;11.57;69.68
77823;BME280;67013;49.730;17.292;2024-03-02T03:07:57;97601.30;;;11.52;69.84
77823;BME280;67013;49.730;17.292;2024-03-02T03:10:27;97600.54;;;11.47;69.80
77823;BME280;67013;49.730;17.292;2024-03-02T03:12:56;97597.89;;;11.44;70.07
77823;BME280;67013;49.730;17.292;2024-03-02T03:15:26;97593.62;;;11.41;70.15
77823;BME280;67013;49.730;17.292;2024-03-02T03:17:56;97592.38;;;11.39;70.03
77823;BME280;67013;49.730;17.292;2024-03-02T03:20:26;97587.90;;;11.39;70.00
77823;BME280;67013;49.730;17.292;2024-03-02T03:22:55;97590.07;;;11.38;70.11
77823;BME280;67013;49.730;17.292;2024-03-02T03:25:25;97590.36;;;11.37;70.02
77823;BME280;67013;49.730;17.292;2024-03-02T03:27:55;97592.54;;;11.36;70.15
77823;BME280;67013;49.730;17.292;2024-03-02T03:30:25;97594.29;;;11.34;70.15
77823;BME280;67013;49.730;17.292;2024-03-02T03:32:55;97599.27;;;11.30;70.20
77823;BME280;67013;49.730;17.292;2024-03-02T03:35:24;97596.45;;;11.25;70.14
77823;BME280;67013;49.730;17.292;2024-03-02T03:37:53;97594.08;;;11.20;70.43
77823;BME280;67013;49.730;17.292;2024-03-02T03:40:23;97594.69;;;11.15;70.46
77823;BME280;67013;49.730;17.292;2024-03-02T03:42:53;97596.64;;;11.11;70.46
77823;BME280;67013;49.730;17.292;2024-03-02T03:45:24;97595.84;;;11.08;70.59
77823;BME280;67013;49.730;17.292;2024-03-02T03:47:55;97596.43;;;11.05;70.68
77823;BME280;67013;49.730;17.292;2024-03-02T03:50:24;97598.59;;;11.02;70.75
77823;BME280;67013;49.730;17.292;2024-03-02T03:52:54;97600.02;;;10.98;71.10
77823;BME280;67013;49.730;17.292;2024-03-02T03:55:23;97599.29;;;10.92;71.29
77823;BME280;67013;49.730;17.292;2024-03-02T03:57:53;97601.26;;;10.88;71.23
77823;BME280;67013;49.730;17.292;2024-03-02T04:00:22;97598.92;;;10.83;71.50
77823;BME280;67013;49.730;17.292;2024-03-02T04:02:52;97602.27;;;10.79;71.22
77823;BME280;67013;49.730;17.292;2024-03-02T04:05:21;97602.29;;;10.74;71.54
77823;BME280;67013;49.730;17.292;2024-03-02T04:07:51;97603.09;;;10.71;71.63
77823;BME280;67013;49.730;17.292;2024-03-02T04:10:20;97602.88;;;10.67;71.69
77823;BME280;67013;49.730;17.292;2024-03-02T04:12:52;97603.46;;;10.64;71.82
77823;BME280;67013;49.730;17.292;2024-03-02T04:15:21;97604.39;;;10.62;71.91
77823;BME280;67013;49.730;17.292;2024-03-02T04:17:51;97609.56;;;10.60;71.89
77823;BME280;67013;49.730;17.292;2024-03-02T04:20:21;97610.90;;;10.58;71.94
77823;BME280;67013;49.730;17.292;2024-03-02T04:22:50;97614.59;;;10.56;71.90
77823;BME280;67013;49.730;17.292;2024-03-02T04:25:20;97617.34;;;10.52;72.24
77823;BME280;67013;49.730;17.292;2024-03-02T04:27:49;97619.20;;;10.51;72.49
77823;BME280;67013;49.730;17.292;2024-03-02T04:30:19;97620.67;;;10.48;72.61
77823;BME280;67013;49.730;17.292;2024-03-02T04:32:48;97624.60;;;10.47;72.65
77823;BME280;67013;49.730;17.292;2024-03-02T04:35:18;97623.05;;;10.46;72.76
77823;BME280;67013;49.730;17.292;2024-03-02T04:37:47;97616.58;;;10.47;72.61
77823;BME280;67013;49.730;17.292;2024-03-02T04:40:17;97619.58;;;10.48;72.79
77823;BME280;67013;49.730;17.292;2024-03-02T04:42:46;97622.23;;;10.50;72.72
77823;BME280;67013;49.730;17.292;2024-03-02T04:45:16;97627.38;;;10.51;72.67
77823;BME280;67013;49.730;17.292;2024-03-02T04:47:45;97628.37;;;10.52;72.65
77823;BME280;67013;49.730;17.292;2024-03-02T04:50:15;97634.30;;;10.51;72.73
77823;BME280;67013;49.730;17.292;2024-03-02T04:52:44;97637.05;;;10.52;72.94
77823;BME280;67013;49.730;17.292;2024-03-02T04:55:14;97637.46;;;10.53;72.82
77823;BME280;67013;49.730;17.292;2024-03-02T04:58:03;97638.63;;;10.55;72.77
77823;BME280;67013;49.730;17.292;2024-03-02T05:00:33;97636.63;;;10.58;72.88
77823;BME280;67013;49.730;17.292;2024-03-02T05:03:03;97633.77;;;10.62;72.75
77823;BME280;67013;49.730;17.292;2024-03-02T05:05:32;97626.83;;;10.64;72.89
77823;BME280;67013;49.730;17.292;2024-03-02T05:08:04;97627.81;;;10.62;72.84
77823;BME280;67013;49.730;17.292;2024-03-02T05:10:33;97634.69;;;10.61;72.86
77823;BME280;67013;49.730;17.292;2024-03-02T05:13:05;97639.39;;;10.61;72.75
77823;BME280;67013;49.730;17.292;2024-03-02T05:15:34;97638.95;;;10.58;72.92
77823;BME280;67013;49.730;17.292;2024-03-02T05:18:04;97640.09;;;10.55;72.73
77823;BME280;67013;49.730;17.292;2024-03-02T05:20:34;97640.05;;;10.51;73.10
77823;BME280;67013;49.730;17.292;2024-03-02T05:23:04;97642.48;;;10.49;73.12
77823;BME280;67013;49.730;17.292;2024-03-02T05:25:33;97642.15;;;10.49;73.20
77823;BME280;67013;49.730;17.292;2024-03-02T05:28:05;97643.40;;;10.48;73.11
77823;BME280;67013;49.730;17.292;2024-03-02T05:30:34;97648.09;;;10.46;73.06
77823;BME280;67013;49.730;17.292;2024-03-02T05:33:04;97649.83;;;10.44;73.41
77823;BME280;67013;49.730;17.292;2024-03-02T05:35:34;97646.19;;;10.42;73.21
77823;BME280;67013;49.730;17.292;2024-03-02T05:38:04;97647.77;;;10.42;73.28
77823;BME280;67013;49.730;17.292;2024-03-02T05:40:33;97658.10;;;10.43;73.39
77823;BME280;67013;49.730;17.292;2024-03-02T05:43:03;97660.49;;;10.44;73.33
77823;BME280;67013;49.730;17.292;2024-03-02T05:45:33;97658.74;;;10.44;73.21
77823;BME280;67013;49.730;17.292;2024-03-02T05:48:02;97658.41;;;10.44;73.26
77823;BME280;67013;49.730;17.292;2024-03-02T05:50:32;97660.02;;;10.45;73.31
77823;BME280;67013;49.730;17.292;2024-03-02T05:53:02;97661.05;;;10.47;73.15
77823;BME280;67013;49.730;17.292;2024-03-02T05:55:31;97661.58;;;10.49;73.29
77823;BME280;67013;49.730;17.292;2024-03-02T05:58:01;97660.23;;;10.51;73.14
77823;BME280;67013;49.730;17.292;2024-03-02T06:00:45;97664.09;;;10.53;73.25
77823;BME280;67013;49.730;17.292;2024-03-02T06:03:15;97666.91;;;10.54;73.40
77823;BME280;67013;49.730;17.292;2024-03-02T06:05:45;97663.71;;;10.55;73.23
77823;BME280;67013;49.730;17.292;2024-03-02T06:08:17;97669.16;;;10.56;73.13
77823;BME280;67013;49.730;17.292;2024-03-02T06:10:47;97669.81;;;10.57;73.05
77823;BME280;67013;49.730;17.292;2024-03-02T06:13:16;97666.65;;;10.57;73.29
77823;BME280;67013;49.730;17.292;2024-03-02T06:15:45;97669.81;;;10.59;73.04
77823;BME280;67013;49.730;17.292;2024-03-02T06:18:15;97669.92;;;10.62;72.88
77823;BME280;67013;49.730;17.292;2024-03-02T06:20:44;97672.58;;;10.66;72.98
77823;BME280;67013;49.730;17.292;2024-03-02T06:23:14;97677.23;;;10.68;72.89
77823;BME280;67013;49.730;17.292;2024-03-02T06:25:44;97678.88;;;10.71;72.96
77823;BME280;67013;49.730;17.292;2024-03-02T06:28:13;97676.82;;;10.75;72.93
77823;BME280;67013;49.730;17.292;2024-03-02T06:30:44;97676.23;;;10.80;72.70
77823;BME280;67013;49.730;17.292;2024-03-02T06:33:13;97677.98;;;10.85;72.67
77823;BME280;67013;49.730;17.292;2024-03-02T06:35:43;97680.71;;;10.92;72.66
77823;BME280;67013;49.730;17.292;2024-03-02T06:38:12;97681.98;;;11.00;72.62
77823;BME280;67013;49.730;17.292;2024-03-02T06:40:42;97674.92;;;11.07;72.31
77823;BME280;67013;49.730;17.292;2024-03-02T06:43:12;97675.80;;;11.13;72.53
77823;BME280;67013;49.730;17.292;2024-03-02T06:45:42;97677.56;;;11.18;72.03
77823;BME280;67013;49.730;17.292;2024-03-02T06:48:11;97680.85;;;11.25;72.11
77823;BME280;67013;49.730;17.292;2024-03-02T06:50:43;97680.30;;;11.31;72.00
77823;BME280;67013;49.730;17.292;2024-03-02T06:53:13;97682.92;;;11.35;71.88
77823;BME280;67013;49.730;17.292;2024-03-02T06:55:46;97680.94;;;11.38;71.77
77823;BME280;67013;49.730;17.292;2024-03-02T06:58:15;97683.23;;;11.44;71.69
77823;BME280;67013;49.730;17.292;2024-03-02T07:00:46;97685.09;;;11.52;71.69
77823;BME280;67013;49.730;17.292;2024-03-02T07:03:15;97686.54;;;11.63;71.74
77823;BME280;67013;49.730;17.292;2024-03-02T07:05:45;97687.52;;;11.74;71.40
77823;BME280;67013;49.730;17.292;2024-03-02T07:08:16;97687.20;;;11.87;71.19
77823;BME280;67013;49.730;17.292;2024-03-02T07:10:45;97688.34;;;12.02;70.79
77823;BME280;67013;49.730;17.292;2024-03-02T07:13:15;97685.86;;;12.16;70.66
77823;BME280;67013;49.730;17.292;2024-03-02T07:15:44;97687.58;;;12.29;70.47
77823;BME280;67013;49.730;17.292;2024-03-02T07:18:34;97692.93;;;12.45;70.28
77823;BME280;67013;49.730;17.292;2024-03-02T07:21:09;97693.27;;;12.58;70.06
77823;BME280;67013;49.730;17.292;2024-03-02T07:23:38;97695.20;;;12.70;70.04
77823;BME280;67013;49.730;17.292;2024-03-02T07:26:08;97699.71;;;12.79;69.96
77823;BME280;67013;49.730;17.292;2024-03-02T07:28:38;97699.10;;;12.88;69.60
77823;BME280;67013;49.730;17.292;2024-03-02T07:31:08;97702.58;;;12.95;69.19
77823;BME280;67013;49.730;17.292;2024-03-02T07:33:38;97701.02;;;13.01;68.54
77823;BME280;67013;49.730;17.292;2024-03-02T07:36:08;97699.54;;;13.07;68.09
77823;BME280;67013;49.730;17.292;2024-03-02T07:38:38;97705.79;;;13.13;67.48
77823;BME280;67013;49.730;17.292;2024-03-02T07:41:09;97706.27;;;13.18;67.09
77823;BME280;67013;49.730;17.292;2024-03-02T07:43:39;97710.42;;;13.20;66.97
77823;BME280;67013;49.730;17.292;2024-03-02T07:46:09;97712.17;;;13.20;66.87
77823;BME280;67013;49.730;17.292;2024-03-02T07:48:38;97712.50;;;13.18;66.46
77823;BME280;67013;49.730;17.292;2024-03-02T07:51:08;97710.05;;;13.18;66.16
77823;BME280;67013;49.730;17.292;2024-03-02T07:53:37;97714.24;;;13.20;66.00
77823;BME280;67013;49.730;17.292;2024-03-02T07:56:07;97717.10;;;13.23;66.17
77823;BME280;67013;49.730;17.292;2024-03-02T07:58:37;97717.06;;;13.25;65.81
77823;BME280;67013;49.730;17.292;2024-03-02T08:01:07;97717.05;;;13.23;65.35
77823;BME280;67013;49.730;17.292;2024-03-02T08:03:36;97719.19;;;13.19;65.25
77823;BME280;67013;49.730;17.292;2024-03-02T08:06:06;97716.11;;;13.19;65.39
77823;BME280;67013;49.730;17.292;2024-03-02T08:08:36;97722.17;;;13.21;65.33
77823;BME280;67013;49.730;17.292;2024-03-02T08:11:06;97725.20;;;13.22;65.18
77823;BME280;67013;49.730;17.292;2024-03-02T08:13:36;97721.81;;;13.21;64.83
77823;BME280;67013;49.730;17.292;2024-03-02T08:16:06;97724.36;;;13.20;64.79
77823;BME280;67013;49.730;17.292;2024-03-02T08:18:37;97724.83;;;13.19;64.86
77823;BME280;67013;49.730;17.292;2024-03-02T08:21:07;97725.40;;;13.17;64.67
77823;BME280;67013;49.730;17.292;2024-03-02T08:23:38;97723.61;;;13.13;64.73
77823;BME280;67013;49.730;17.292;2024-03-02T08:26:09;97728.27;;;13.12;64.56
77823;BME280;67013;49.730;17.292;2024-03-02T08:28:39;97725.16;;;13.07;64.59
77823;BME280;67013;49.730;17.292;2024-03-02T08:31:09;97724.39;;;13.06;64.74
77823;BME280;67013;49.730;17.292;2024-03-02T08:33:39;97723.91;;;13.04;64.59
77823;BME280;67013;49.730;17.292;2024-03-02T08:36:10;97726.52;;;13.04;64.66
77823;BME280;67013;49.730;17.292;2024-03-02T08:38:40;97728.59;;;13.03;64.44
77823;BME280;67013;49.730;17.292;2024-03-02T08:41:09;97726.23;;;13.02;64.52
77823;BME280;67013;49.730;17.292;2024-03-02T08:43:42;97726.88;;;13.04;64.37
77823;BME280;67013;49.730;17.292;2024-03-02T08:46:11;97725.55;;;13.05;64.33
77823;BME280;67013;49.730;17.292;2024-03-02T08:48:41;97728.02;;;13.07;64.53
77823;BME280;67013;49.730;17.292;2024-03-02T08:51:11;97732.96;;;13.08;64.37
77823;BME280;67013;49.730;17.292;2024-03-02T08:53:41;97728.70;;;13.09;64.15
77823;BME280;67013;49.730;17.292;2024-03-02T08:56:11;97731.91;;;13.08;64.18
77823;BME280;67013;49.730;17.292;2024-03-02T08:58:41;97727.51;;;13.08;64.07
77823;BME280;67013;49.730;17.292;2024-03-02T09:01:11;97732.16;;;13.09;63.75
77823;BME280;67013;49.730;17.292;2024-03-02T09:03:41;97727.67;;;13.08;63.82
77823;BME280;67013;49.730;17.292;2024-03-02T09:06:13;97731.73;;;13.10;63.82
77823;BME280;67013;49.730;17.292;2024-03-02T09:08:45;97734.58;;;13.13;63.81
77823;BME280;67013;49.730;17.292;2024-03-02T09:11:15;97734.91;;;13.19;63.67
77823;BME280;67013;49.730;17.292;2024-03-02T09:13:44;97737.41;;;13.24;63.48
77823;BME280;67013;49.730;17.292;2024-03-02T09:16:14;97736.49;;;13.26;63.05
77823;BME280;67013;49.730;17.292;2024-03-02T09:18:44;97736.07;;;13.27;63.04
77823;BME280;67013;49.730;17.292;2024-03-02T09:21:13;97735.55;;;13.29;63.06
77823;BME280;67013;49.730;17.292;2024-03-02T09:23:43;97739.21;;;13.33;63.10
77823;BME280;67013;49.730;17.292;2024-03-02T09:26:14;97738.09;;;13.39;63.20
77823;BME280;67013;49.730;17.292;2024-03-02T09:28:45;97738.09;;;13.47;63.21
77823;BME280;67013;49.730;17.292;2024-03-02T09:31:15;97735.95;;;13.54;63.09
77823;BME280;67013;49.730;17.292;2024-03-02T09:33:44;97734.63;;;13.61;63.04
77823;BME280;67013;49.730;17.292;2024-03-02T09:36:20;97734.61;;;13.68;62.85
77823;BME280;67013;49.730;17.292;2024-03-02T09:38:50;97739.05;;;13.74;62.34
77823;BME280;67013;49.730;17.292;2024-03-02T09:41:20;97738.65;;;13.81;62.62
77823;BME280;67013;49.730;17.292;2024-03-02T09:43:50;97738.99;;;13.88;63.01
77823;BME280;67013;49.730;17.292;2024-03-02T09:46:20;97739.80;;;13.96;63.02
77823;BME280;67013;49.730;17.292;2024-03-02T09:48:51;97740.55;;;14.02;62.97
77823;BME280;67013;49.730;17.292;2024-03-02T09:51:20;97737.90;;;14.10;62.83
77823;BME280;67013;49.730;17.292;2024-03-02T09:53:51;97744.59;;;14.20;62.63
77823;BME280;67013;49.730;17.292;2024-03-02T09:56:22;97732.02;;;14.27;62.10
77823;BME280;67013;49.730;17.292;2024-03-02T09:58:52;97741.02;;;14.35;62.06
77823;BME280;67013;49.730;17.292;2024-03-02T10:01:21;97735.34;;;14.43;61.65
77823;BME280;67013;49.730;17.292;2024-03-02T10:03:51;97740.17;;;14.51;61.31
77823;BME280;67013;49.730;17.292;2024-03-02T10:06:23;97737.05;;;14.56;61.51
77823;BME280;67013;49.730;17.292;2024-03-02T10:08:53;97734.95;;;14.63;61.54
77823;BME280;67013;49.730;17.292;2024-03-02T10:11:31;97736.00;;;14.68;60.96
77823;BME280;67013;49.730;17.292;2024-03-02T10:14:08;97736.08;;;14.74;60.77
77823;BME280;67013;49.730;17.292;2024-03-02T10:16:39;97734.80;;;14.82;60.61
77823;BME280;67013;49.730;17.292;2024-03-02T10:19:20;97726.87;;;14.88;60.33
77823;BME280;67013;49.730;17.292;2024-03-02T10:21:50;97724.84;;;14.94;60.26
77823;BME280;67013;49.730;17.292;2024-03-02T10:24:21;97724.89;;;15.00;60.39
77823;BME280;67013;49.730;17.292;2024-03-02T10:26:51;97727.73;;;15.08;59.92
77823;BME280;67013;49.730;17.292;2024-03-02T10:29:21;97723.36;;;15.17;59.82
77823;BME280;67013;49.730;17.292;2024-03-02T10:31:51;97726.61;;;15.24;59.86
77823;BME280;67013;49.730;17.292;2024-03-02T10:34:21;97726.08;;;15.33;59.55
77823;BME280;67013;49.730;17.292;2024-03-02T10:36:50;97721.13;;;15.40;59.54
77823;BME280;67013;49.730;17.292;2024-03-02T10:39:20;97724.21;;;15.49;59.51
77823;BME280;67013;49.730;17.292;2024-03-02T10:41:50;97723.00;;;15.58;59.48
77823;BME280;67013;49.730;17.292;2024-03-02T10:44:23;97721.50;;;15.69;59.43
77823;BME280;67013;49.730;17.292;2024-03-02T10:46:53;97719.21;;;15.79;59.25
77823;BME280;67013;49.730;17.292;2024-03-02T10:49:25;97721.08;;;15.88;58.65
77823;BME280;67013;49.730;17.292;2024-03-02T10:51:55;97720.13;;;15.97;58.05
77823;BME280;67013;49.730;17.292;2024-03-02T10:54:25;97721.45;;;16.06;58.21
77823;BME280;67013;49.730;17.292;2024-03-02T10:56:59;97721.47;;;16.15;57.79
77823;BME280;67013;49.730;17.292;2024-03-02T10:59:34;97722.30;;;16.24;57.38
77823;BME280;67013;49.730;17.292;2024-03-02T11:02:05;97718.71;;;16.35;57.71
77823;BME280;67013;49.730;17.292;2024-03-02T11:04:35;97714.88;;;16.46;57.63
77823;BME280;67013;49.730;17.292;2024-03-02T11:07:07;97717.77;;;16.57;57.21
77823;BME280;67013;49.730;17.292;2024-03-02T11:09:41;97715.24;;;16.62;56.10
77823;BME280;67013;49.730;17.292;2024-03-02T11:12:15;97712.02;;;16.67;56.10
77823;BME280;67013;49.730;17.292;2024-03-02T11:14:48;97710.98;;;16.74;55.12
77823;BME280;67013;49.730;17.292;2024-03-02T11:17:20;97713.75;;;16.74;54.48
77823;BME280;67013;49.730;17.292;2024-03-02T11:19:51;97710.46;;;16.77;54.43
77823;BME280;67013;49.730;17.292;2024-03-02T11:22:22;97713.06;;;16.77;53.94
77823;BME280;67013;49.730;17.292;2024-03-02T11:24:52;97710.25;;;16.74;53.68
77823;BME280;67013;49.730;17.292;2024-03-02T11:30:51;97705.52;;;16.50;53.06
77823;BME280;67013;49.730;17.292;2024-03-02T11:33:28;97704.44;;;16.29;53.53
77823;BME280;67013;49.730;17.292;2024-03-02T11:35:58;97703.53;;;16.12;53.62
77823;BME280;67013;49.730;17.292;2024-03-02T11:38:33;97708.16;;;15.99;53.81
77823;BME280;67013;49.730;17.292;2024-03-02T11:41:07;97703.63;;;15.89;53.97
77823;BME280;67013;49.730;17.292;2024-03-02T11:43:40;97700.74;;;15.78;54.52
77823;BME280;67013;49.730;17.292;2024-03-02T11:46:12;97699.28;;;15.75;55.00
77823;BME280;67013;49.730;17.292;2024-03-02T11:48:42;97703.70;;;15.73;55.09
77823;BME280;67013;49.730;17.292;2024-03-02T11:51:12;97706.38;;;15.68;55.11
77823;BME280;67013;49.730;17.292;2024-03-02T11:53:43;97705.41;;;15.65;55.26
77823;BME280;67013;49.730;17.292;2024-03-02T11:56:15;97704.41;;;15.65;55.36
77823;BME280;67013;49.730;17.292;2024-03-02T11:58:45;97703.98;;;15.62;55.06
77823;BME280;67013;49.730;17.292;2024-03-02T12:01:15;97705.27;;;15.57;55.16
77823;BME280;67013;49.730;17.292;2024-03-02T12:03:46;97708.20;;;15.51;55.35
77823;BME280;67013;49.730;17.292;2024-03-02T12:06:18;97703.08;;;15.47;55.54
77823;BME280;67013;49.730;17.292;2024-03-02T12:08:53;97701.81;;;15.44;56.08
77823;BME280;67013;49.730;17.292;2024-03-02T12:11:23;97707.30;;;15.43;56.14
77823;BME280;67013;49.730;17.292;2024-03-02T12:13:55;97703.27;;;15.42;56.02
77823;BME280;67013;49.730;17.292;2024-03-02T12:16:27;97701.30;;;15.42;56.35
77823;BME280;67013;49.730;17.292;2024-03-02T12:18:57;97704.39;;;15.41;56.27
77823;BME280;67013;49.730;17.292;2024-03-02T12:21:26;97707.10;;;15.39;56.32
77823;BME280;67013;49.730;17.292;2024-03-02T12:23:56;97705.41;;;15.33;55.99
77823;BME280;67013;49.730;17.292;2024-03-02T12:26:27;97708.40;;;15.26;56.30
77823;BME280;67013;49.730;17.292;2024-03-02T12:28:57;97710.94;;;15.24;56.42
77823;BME280;67013;49.730;17.292;2024-03-02T12:31:27;97710.90;;;15.19;56.34
77823;BME280;67013;49.730;17.292;2024-03-02T12:33:57;97713.94;;;15.15;56.54
77823;BME280;67013;49.730;17.292;2024-03-02T12:36:26;97716.48;;;15.10;56.70
77823;BME280;67013;49.730;17.292;2024-03-02T12:38:56;97718.09;;;15.00;56.68
77823;BME280;67013;49.730;17.292;2024-03-02T12:41:25;97717.04;;;14.88;56.87
77823;BME280;67013;49.730;17.292;2024-03-02T12:43:55;97720.91;;;14.77;57.35
77823;BME280;67013;49.730;17.292;2024-03-02T12:46:24;97722.03;;;14.69;57.61
77823;BME280;67013;49.730;17.292;2024-03-02T12:48:54;97716.44;;;14.62;57.87
77823;BME280;67013;49.730;17.292;2024-03-02T12:51:25;97716.16;;;14.53;58.15
77823;BME280;67013;49.730;17.292;2024-03-02T12:53:58;97722.31;;;14.46;58.53
77823;BME280;67013;49.730;17.292;2024-03-02T12:56:28;97719.03;;;14.36;58.69
77823;BME280;67013;49.730;17.292;2024-03-02T12:58:57;97716.40;;;14.29;59.06
77823;BME280;67013;49.730;17.292;2024-03-02T13:01:27;97718.70;;;14.26;59.25
77823;BME280;67013;49.730;17.292;2024-03-02T13:03:57;97719.30;;;14.20;59.10
77823;BME280;67013;49.730;17.292;2024-03-02T13:06:27;97716.77;;;14.11;59.30
77823;BME280;67013;49.730;17.292;2024-03-02T13:08:57;97714.25;;;14.01;59.54
77823;BME280;67013;49.730;17.292;2024-03-02T13:11:27;97720.67;;;13.95;59.88